Time;durP1;ratioP1;P1;durP2;ratioP2;P2;SDS_P1;SDS_P2;PMS_P1;PMS_P2;Temp;Humidity;BMP_temperature;BMP_pressure;BME280_temperature;BME280_humidity;BME280_pressure;Samples;Min_cycle;Max_cycle;Signal;HPM_P1;HPM_P2
2021/10/23 00:01:17;;;;;;;79.50;38.20;;;;;;;-145.64;100.00;65708.53;5042409;28;20689;-69
2021/10/23 00:03:45;;;;;;;22.23;10.20;;;;;;;-145.64;100.00;65708.53;5046694;28;20205;-68
2021/10/23 00:06:15;;;;;;;6.27;2.70;;;;;;;-145.64;100.00;65708.53;5044202;28;20201;-68
2021/10/23 00:08:45;;;;;;;3.63;1.67;;;;;;;-145.64;100.00;65708.53;5045566;28;20321;-68
2021/10/23 00:11:14;;;;;;;2.53;1.60;;;;;;;-145.64;100.00;65708.53;5044871;28;20698;-67
2021/10/23 00:13:42;;;;;;;1.20;1.10;;;;;;;-145.64;100.00;65708.53;5045152;28;20847;-66
2021/10/23 00:16:12;;;;;;;0.50;0.50;;;;;;;-145.64;100.00;65708.53;5044665;28;20214;-68
2021/10/23 00:18:40;;;;;;;0.87;0.53;;;;;;;-145.64;100.00;65708.53;5049312;28;20282;-68
2021/10/23 00:21:09;;;;;;;0.40;0.40;;;;;;;-145.64;100.00;65708.53;5049813;28;20214;-68
2021/10/23 00:23:37;;;;;;;1.30;0.47;;;;;;;-145.64;100.00;65708.53;5048105;28;20829;-68
2021/10/23 00:26:05;;;;;;;0.40;0.40;;;;;;;-145.64;100.00;65708.53;5049255;28;20203;-68
2021/10/23 00:28:33;;;;;;;0.40;0.40;;;;;;;-145.64;100.00;65708.53;5048777;28;20627;-67
2021/10/23 00:31:02;;;;;;;1.03;0.60;;;;;;;-145.64;100.00;65708.53;5048440;28;20279;-67
2021/10/23 00:33:33;;;;;;;0.50;0.50;;;;;;;-145.64;100.00;65708.53;5048927;28;20203;-68
2021/10/23 00:36:01;;;;;;;0.83;0.60;;;;;;;-145.64;100.00;65708.53;5049690;28;20208;-67
2021/10/23 00:38:29;;;;;;;0.33;0.30;;;;;;;-145.64;100.00;65708.53;5047425;28;20650;-67
2021/10/23 00:40:58;;;;;;;2.00;0.50;;;;;;;-145.64;100.00;65708.53;5046867;28;20206;-67
2021/10/23 00:43:26;;;;;;;0.40;0.40;;;;;;;-145.64;100.00;65708.53;5049440;28;20203;-67
2021/10/23 00:45:54;;;;;;;1.40;0.50;;;;;;;-145.64;100.00;65708.53;5049517;28;20223;-67
2021/10/23 00:48:22;;;;;;;0.70;0.53;;;;;;;-145.64;100.00;65708.53;5049215;28;20626;-67
2021/10/23 00:50:52;;;;;;;0.77;0.50;;;;;;;-145.64;100.00;65708.53;5049153;28;20584;-67
2021/10/23 00:53:21;;;;;;;0.57;0.47;;;;;;;-145.64;100.00;65708.53;5049119;28;20210;-67
2021/10/23 00:55:50;;;;;;;0.40;0.30;;;;;;;-145.64;100.00;65708.53;5047516;28;20760;-67
2021/10/23 00:58:18;;;;;;;0.67;0.20;;;;;;;-145.64;100.00;65708.53;5042380;28;20192;-67
2021/10/23 01:00:47;;;;;;;0.50;0.50;;;;;;;-145.64;100.00;65708.53;5032431;28;20793;-67
2021/10/23 01:03:15;;;;;;;0.30;0.30;;;;;;;-145.64;100.00;65708.53;5057825;28;20204;-67
2021/10/23 01:05:44;;;;;;;0.30;0.30;;;;;;;-145.64;100.00;65708.53;5043076;28;20210;-67
2021/10/23 01:08:14;;;;;;;3.37;0.53;;;;;;;-145.64;100.00;65708.53;5045172;28;20195;-67
2021/10/23 01:10:43;;;;;;;0.67;0.43;;;;;;;-145.64;100.00;65708.53;5046935;28;20207;-67
2021/10/23 01:13:12;;;;;;;0.40;0.40;;;;;;;-145.64;100.00;65708.53;5043149;28;20198;-67
2021/10/23 01:15:40;;;;;;;0.70;0.50;;;;;;;-145.64;100.00;65708.53;5044135;28;20202;-67
2021/10/23 01:18:09;;;;;;;0.30;0.30;;;;;;;-145.64;100.00;65708.53;5039633;28;20200;-67
2021/10/23 01:20:38;;;;;;;0.30;0.30;;;;;;;-145.64;100.00;65708.53;5044862;28;20558;-67
2021/10/23 01:23:06;;;;;;;0.40;0.40;;;;;;;-145.64;100.00;65708.53;5045055;28;20213;-67
2021/10/23 01:25:35;;;;;;;1.70;0.40;;;;;;;-145.64;100.00;65708.53;5036375;28;21016;-67
2021/10/23 01:28:05;;;;;;;0.40;0.40;;;;;;;-145.64;100.00;65708.53;5035301;28;20319;-67
2021/10/23 01:30:33;;;;;;;0.40;0.40;;;;;;;-145.64;100.00;65708.53;5039138;28;20214;-67
2021/10/23 01:33:01;;;;;;;1.07;0.60;;;;;;;-145.64;100.00;65708.53;5034907;28;20282;-67
2021/10/23 01:35:30;;;;;;;1.63;0.53;;;;;;;-145.64;100.00;65708.53;5034557;28;20199;-67
2021/10/23 01:37:59;;;;;;;0.40;0.40;;;;;;;-145.64;100.00;65708.53;5040026;28;20214;-67
2021/10/23 01:40:32;;;;;;;1.80;0.50;;;;;;;-145.64;100.00;65708.53;5042003;28;20214;-67
2021/10/23 01:43:01;;;;;;;108.30;97.17;;;;;;;-145.64;100.00;65708.53;5037610;28;20207;-67
2021/10/23 01:45:30;;;;;;;99.17;81.60;;;;;;;-145.64;100.00;65708.53;5042714;28;20200;-67
2021/10/23 01:47:58;;;;;;;12.50;7.97;;;;;;;-145.64;100.00;65708.53;5043151;28;20658;-67
2021/10/23 01:50:28;;;;;;;2.43;1.30;;;;;;;-145.64;100.00;65708.53;5040877;28;20194;-67
2021/10/23 01:52:57;;;;;;;1.10;1.00;;;;;;;-145.64;100.00;65708.53;5040684;28;20206;-67
2021/10/23 01:55:26;;;;;;;2.30;2.20;;;;;;;-145.64;100.00;65708.53;5040090;28;20677;-67
2021/10/23 01:57:56;;;;;;;3.50;3.20;;;;;;;-145.64;100.00;65708.53;5041431;28;20212;-67
2021/10/23 02:00:24;;;;;;;1.23;1.13;;;;;;;-145.64;100.00;65708.53;5038881;28;20554;-67
2021/10/23 02:02:52;;;;;;;0.60;0.60;;;;;;;-145.64;100.00;65708.53;5041140;28;20199;-67
2021/10/23 02:05:20;;;;;;;1.60;1.50;;;;;;;-145.64;100.00;65708.53;5047959;28;20222;-67
2021/10/23 02:07:49;;;;;;;2.70;1.77;;;;;;;-145.64;100.00;65708.53;5038144;28;20191;-67
2021/10/23 02:10:17;;;;;;;0.80;0.70;;;;;;;-145.64;100.00;65708.53;5037745;28;20214;-67
2021/10/23 02:12:46;;;;;;;2.20;1.90;;;;;;;-145.64;100.00;65708.53;5043807;28;20745;-68
2021/10/23 02:15:15;;;;;;;1.63;0.90;;;;;;;-145.64;100.00;65708.53;5039813;28;20212;-67
2021/10/23 02:17:43;;;;;;;1.27;1.17;;;;;;;-145.64;100.00;65708.53;5052406;28;20680;-68
2021/10/23 02:20:12;;;;;;;0.70;0.70;;;;;;;-145.64;100.00;65708.53;5052183;28;20557;-67
2021/10/23 02:22:41;;;;;;;2.50;2.30;;;;;;;-145.64;100.00;65708.53;5051692;28;20206;-67
2021/10/23 02:25:11;;;;;;;0.63;0.63;;;;;;;-145.64;100.00;65708.53;5051889;28;20217;-67
2021/10/23 02:27:40;;;;;;;0.50;0.50;;;;;;;-145.64;100.00;65708.53;5050558;28;20201;-67
2021/10/23 02:30:10;;;;;;;0.73;0.73;;;;;;;-145.64;100.00;65708.53;5051053;28;20212;-67
2021/10/23 02:32:39;;;;;;;0.50;0.50;;;;;;;-145.64;100.00;65708.53;5050398;28;20221;-67
2021/10/23 02:35:08;;;;;;;0.50;0.50;;;;;;;-145.64;100.00;65708.53;5051095;28;20196;-67
2021/10/23 02:37:37;;;;;;;2.47;0.60;;;;;;;-145.64;100.00;65708.53;5047585;28;20211;-67
2021/10/23 02:40:06;;;;;;;1.10;0.60;;;;;;;-145.64;100.00;65708.53;5041208;28;20225;-67
2021/10/23 02:42:34;;;;;;;0.60;0.60;;;;;;;-145.64;100.00;65708.53;5050280;28;20566;-67
2021/10/23 02:45:03;;;;;;;0.47;0.47;;;;;;;-145.64;100.00;65708.53;5050954;28;20203;-67
2021/10/23 02:47:34;;;;;;;1.60;0.70;;;;;;;-145.64;100.00;65708.53;5050521;28;20200;-67
2021/10/23 02:50:02;;;;;;;0.67;0.60;;;;;;;-145.64;100.00;65708.53;5050953;28;20220;-67
2021/10/23 02:52:31;;;;;;;0.50;0.50;;;;;;;-145.64;100.00;65708.53;5049528;28;20233;-67
2021/10/23 02:54:59;;;;;;;0.57;0.57;;;;;;;-145.64;100.00;65708.53;5044883;28;20203;-67
2021/10/23 02:57:27;;;;;;;0.50;0.50;;;;;;;-145.64;100.00;65708.53;5043324;28;20207;-68
2021/10/23 02:59:55;;;;;;;0.60;0.60;;;;;;;-145.64;100.00;65708.53;5050747;28;20198;-68
2021/10/23 03:02:23;;;;;;;0.50;0.50;;;;;;;-145.64;100.00;65708.53;5050399;28;20666;-68
2021/10/23 03:04:53;;;;;;;0.60;0.60;;;;;;;-145.64;100.00;65708.53;5050502;28;20225;-68
2021/10/23 03:07:21;;;;;;;0.60;0.60;;;;;;;-145.64;100.00;65708.53;5050128;28;20213;-67
2021/10/23 03:09:49;;;;;;;0.43;0.40;;;;;;;-145.64;100.00;65708.53;5050232;28;20200;-67
2021/10/23 03:12:17;;;;;;;0.53;0.50;;;;;;;-145.64;100.00;65708.53;5049309;28;20707;-67
2021/10/23 03:14:45;;;;;;;0.40;0.40;;;;;;;-145.64;100.00;65708.53;5050294;28;20200;-67
2021/10/23 03:17:13;;;;;;;0.57;0.57;;;;;;;-145.64;100.00;65708.53;5050215;28;20199;-67
2021/10/23 03:19:41;;;;;;;0.27;0.27;;;;;;;-145.64;100.00;65708.53;5050104;28;20692;-67
2021/10/23 03:22:11;;;;;;;0.43;0.43;;;;;;;-145.64;100.00;65708.53;5050083;28;20190;-67
2021/10/23 03:24:39;;;;;;;0.80;0.60;;;;;;;-145.64;100.00;65708.53;5049969;28;20198;-67
2021/10/23 03:27:07;;;;;;;4.10;3.27;;;;;;;-145.64;100.00;65708.53;5050211;28;20190;-67
2021/10/23 03:29:36;;;;;;;1.50;1.40;;;;;;;-145.64;100.00;65708.53;5046226;28;20227;-67
2021/10/23 03:32:04;;;;;;;1.00;0.80;;;;;;;-145.64;100.00;65708.53;5049926;28;20692;-67
2021/10/23 03:34:33;;;;;;;1.00;1.00;;;;;;;-145.64;100.00;65708.53;5048386;28;20194;-67
2021/10/23 03:37:01;;;;;;;1.43;1.27;;;;;;;-145.64;100.00;65708.53;5049897;28;20680;-67
2021/10/23 03:39:30;;;;;;;0.70;0.70;;;;;;;-145.64;100.00;65708.53;5049462;28;20198;-67
2021/10/23 03:41:58;;;;;;;0.37;0.37;;;;;;;-145.64;100.00;65708.53;5049774;28;20201;-67
2021/10/23 03:44:26;;;;;;;0.70;0.60;;;;;;;-145.64;100.00;65708.53;5049339;28;20198;-67
2021/10/23 03:46:54;;;;;;;0.73;0.73;;;;;;;-145.64;100.00;65708.53;5046166;28;20568;-67
2021/10/23 03:49:22;;;;;;;2.00;0.70;;;;;;;-145.64;100.00;65708.53;5049107;28;20194;-67
2021/10/23 03:51:51;;;;;;;0.50;0.50;;;;;;;-145.64;100.00;65708.53;5049542;28;20229;-67
2021/10/23 03:54:19;;;;;;;2.00;0.43;;;;;;;-145.64;100.00;65708.53;5048942;28;20201;-67
2021/10/23 03:56:48;;;;;;;0.90;0.60;;;;;;;-145.64;100.00;65708.53;5049636;28;20557;-67
2021/10/23 03:59:16;;;;;;;0.43;0.43;;;;;;;-145.64;100.00;65708.53;5049296;28;20665;-67
2021/10/23 04:01:45;;;;;;;2.30;1.47;;;;;;;-145.64;100.00;65708.53;5047883;28;20740;-67
2021/10/23 04:04:13;;;;;;;2.90;0.73;;;;;;;-145.64;100.00;65708.53;5045057;28;20975;-67
2021/10/23 04:06:42;;;;;;;3.33;0.70;;;;;;;-145.64;100.00;65708.53;5048898;28;20562;-67
2021/10/23 04:09:10;;;;;;;0.40;0.40;;;;;;;-145.64;100.00;65708.53;5049671;28;20604;-67
2021/10/23 04:11:38;;;;;;;0.60;0.60;;;;;;;-145.64;100.00;65708.53;5047461;28;20194;-67
2021/10/23 04:14:07;;;;;;;0.50;0.50;;;;;;;-145.64;100.00;65708.53;5049254;28;20206;-67
2021/10/23 04:16:36;;;;;;;0.33;0.33;;;;;;;-145.64;100.00;65708.53;5047762;28;20669;-67
2021/10/23 04:19:04;;;;;;;0.50;0.50;;;;;;;-145.64;100.00;65708.53;5047616;28;20613;-67
2021/10/23 04:21:32;;;;;;;0.40;0.40;;;;;;;-145.64;100.00;65708.53;5040963;28;20569;-67
2021/10/23 04:24:00;;;;;;;0.40;0.40;;;;;;;-145.64;100.00;65708.53;5046234;28;20195;-67
2021/10/23 04:26:28;;;;;;;0.73;0.43;;;;;;;-145.64;100.00;65708.53;5048429;28;20201;-67
2021/10/23 04:28:56;;;;;;;0.40;0.40;;;;;;;-145.64;100.00;65708.53;5043500;28;20214;-67
2021/10/23 04:31:26;;;;;;;0.43;0.43;;;;;;;-145.64;100.00;65708.53;5048341;28;20206;-67
2021/10/23 04:33:54;;;;;;;1.97;0.47;;;;;;;-145.64;100.00;65708.53;5048582;28;20755;-68
2021/10/23 04:36:23;;;;;;;0.40;0.40;;;;;;;-145.64;100.00;65708.53;5034963;28;20205;-68
2021/10/23 04:38:51;;;;;;;0.50;0.50;;;;;;;-145.64;100.00;65708.53;5043105;28;20603;-67
2021/10/23 04:41:19;;;;;;;0.57;0.57;;;;;;;-145.64;100.00;65708.53;5049438;28;20599;-67
2021/10/23 04:43:47;;;;;;;0.60;0.40;;;;;;;-145.64;100.00;65708.53;5049708;28;20566;-67
2021/10/23 04:46:15;;;;;;;0.43;0.43;;;;;;;-145.64;100.00;65708.53;5048202;28;20212;-67
2021/10/23 04:48:45;;;;;;;0.40;0.40;;;;;;;-145.64;100.00;65708.53;5049668;28;20271;-67
2021/10/23 04:51:13;;;;;;;0.60;0.60;;;;;;;-145.64;100.00;65708.53;5049800;28;20615;-68
2021/10/23 04:53:41;;;;;;;0.50;0.50;;;;;;;-145.64;100.00;65708.53;5044781;28;20221;-67
2021/10/23 04:56:09;;;;;;;0.20;0.20;;;;;;;-145.64;100.00;65708.53;5045603;28;20578;-67
2021/10/23 04:58:38;;;;;;;0.60;0.60;;;;;;;-145.64;100.00;65708.53;5049406;28;20224;-67
2021/10/23 05:01:07;;;;;;;0.40;0.40;;;;;;;-145.64;100.00;65708.53;5049406;28;20252;-67
2021/10/23 05:03:35;;;;;;;1.37;0.50;;;;;;;-145.64;100.00;65708.53;5049120;28;20531;-67
2021/10/23 05:06:04;;;;;;;47.57;26.57;;;;;;;-145.64;100.00;65708.53;5048920;28;20219;-68
2021/10/23 05:08:32;;;;;;;7.57;4.47;;;;;;;-145.64;100.00;65708.53;5038799;28;20281;-68
2021/10/23 05:11:01;;;;;;;1.70;1.60;;;;;;;-145.64;100.00;65708.53;5043224;28;20205;-67
2021/10/23 05:13:29;;;;;;;1.10;1.10;;;;;;;-145.64;100.00;65708.53;5047686;28;20218;-68
2021/10/23 05:15:57;;;;;;;1.87;1.50;;;;;;;-145.64;100.00;65708.53;5049158;28;20683;-67
2021/10/23 05:18:25;;;;;;;0.60;0.60;;;;;;;-145.64;100.00;65708.53;5049076;28;20197;-68
2021/10/23 05:20:53;;;;;;;0.80;0.70;;;;;;;-145.64;100.00;65708.53;5048632;28;20212;-67
2021/10/23 05:23:23;;;;;;;0.90;0.90;;;;;;;-145.64;100.00;65708.53;5044802;28;20553;-69
2021/10/23 05:25:51;;;;;;;0.57;0.57;;;;;;;-145.64;100.00;65708.53;5046810;28;20213;-69
2021/10/23 05:28:19;;;;;;;0.50;0.50;;;;;;;-145.64;100.00;65708.53;5042998;28;20237;-69
2021/10/23 05:30:47;;;;;;;3.50;0.60;;;;;;;-145.64;100.00;65708.53;5042898;28;20195;-69
2021/10/23 05:33:15;;;;;;;1.47;1.33;;;;;;;-145.64;100.00;65708.53;5045531;28;20757;-69
2021/10/23 05:35:44;;;;;;;2.00;1.80;;;;;;;-145.64;100.00;65708.53;5041366;28;20235;-68
2021/10/23 05:38:12;;;;;;;0.50;0.50;;;;;;;-145.64;100.00;65708.53;5045049;28;20213;-68
2021/10/23 05:40:42;;;;;;;1.23;1.23;;;;;;;-145.64;100.00;65708.53;5044395;28;20664;-67
2021/10/23 05:43:10;;;;;;;0.80;0.80;;;;;;;-145.64;100.00;65708.53;5046187;28;20208;-68
2021/10/23 05:45:38;;;;;;;4.63;0.50;;;;;;;-145.64;100.00;65708.53;5044256;28;20228;-68
2021/10/23 05:48:06;;;;;;;0.30;0.30;;;;;;;-145.64;100.00;65708.53;5043193;28;20198;-68
2021/10/23 05:50:34;;;;;;;0.70;0.50;;;;;;;-145.64;100.00;65708.53;5046740;28;20231;-68
2021/10/23 05:53:03;;;;;;;0.50;0.50;;;;;;;-145.64;100.00;65708.53;5042287;28;20664;-67
2021/10/23 05:55:31;;;;;;;0.50;0.50;;;;;;;-145.64;100.00;65708.53;5045326;28;20537;-68
2021/10/23 05:58:02;;;;;;;0.50;0.50;;;;;;;-145.64;100.00;65708.53;5044979;28;20209;-68
2021/10/23 06:00:33;;;;;;;0.47;0.47;;;;;;;-145.64;100.00;65708.53;5046237;28;20193;-67
2021/10/23 06:03:02;;;;;;;0.67;0.40;;;;;;;-145.64;100.00;65708.53;5041148;28;20594;-67
2021/10/23 06:05:30;;;;;;;0.60;0.60;;;;;;;-145.64;100.00;65708.53;5043540;28;20205;-67
2021/10/23 06:07:59;;;;;;;0.70;0.70;;;;;;;-145.64;100.00;65708.53;5043520;28;20704;-69
2021/10/23 06:10:27;;;;;;;0.70;0.70;;;;;;;-145.64;100.00;65708.53;5043793;28;20599;-68
2021/10/23 06:12:55;;;;;;;0.50;0.50;;;;;;;-145.64;100.00;65708.53;5044241;28;20202;-68
2021/10/23 06:15:25;;;;;;;1.13;0.73;;;;;;;-145.64;100.00;65708.53;5042160;28;20208;-68
2021/10/23 06:17:53;;;;;;;0.47;0.47;;;;;;;-145.64;100.00;65708.53;5043643;28;20304;-68
2021/10/23 06:20:21;;;;;;;0.60;0.60;;;;;;;-145.64;100.00;65708.53;5042466;28;20201;-68
2021/10/23 06:22:51;;;;;;;0.60;0.60;;;;;;;-145.64;100.00;65708.53;5043030;28;20229;-69
2021/10/23 06:25:20;;;;;;;0.60;0.60;;;;;;;-145.64;100.00;65708.53;5043682;28;20198;-69
2021/10/23 06:27:48;;;;;;;0.63;0.63;;;;;;;-145.64;100.00;65708.53;5048364;28;20198;-70
2021/10/23 06:30:17;;;;;;;0.57;0.57;;;;;;;-145.64;100.00;65708.53;5048855;28;20220;-71
2021/10/23 06:32:48;;;;;;;1.10;0.80;;;;;;;-145.64;100.00;65708.53;5048861;28;20206;-71
2021/10/23 06:35:17;;;;;;;0.50;0.50;;;;;;;-145.64;100.00;65708.53;5043826;28;20692;-71
2021/10/23 06:37:45;;;;;;;1.03;0.83;;;;;;;-145.64;100.00;65708.53;5044950;28;20206;-71
2021/10/23 06:40:14;;;;;;;0.60;0.60;;;;;;;-145.64;100.00;65708.53;5046477;28;20673;-71
2021/10/23 06:42:43;;;;;;;0.50;0.50;;;;;;;-145.64;100.00;65708.53;5044890;28;20794;-70
2021/10/23 06:45:14;;;;;;;0.47;0.47;;;;;;;-145.64;100.00;65708.53;5049530;28;20197;-69
2021/10/23 06:47:42;;;;;;;0.70;0.70;;;;;;;-145.64;100.00;65708.53;5049579;28;20198;-70
2021/10/23 06:50:13;;;;;;;0.50;0.50;;;;;;;-145.64;100.00;65708.53;5049435;28;20280;-69
2021/10/23 06:52:41;;;;;;;0.50;0.50;;;;;;;-145.64;100.00;65708.53;5048599;28;20262;-69
2021/10/23 06:55:10;;;;;;;0.63;0.63;;;;;;;-145.64;100.00;65708.53;5042523;28;20225;-70
2021/10/23 06:57:38;;;;;;;2.67;1.20;;;;;;;-145.64;100.00;65708.53;5042954;28;20613;-70
2021/10/23 07:00:08;;;;;;;5.03;4.63;;;;;;;-145.64;100.00;65708.53;5043023;28;20654;-71
2021/10/23 07:02:40;;;;;;;2.30;2.03;;;;;;;-145.64;100.00;65708.53;5049342;28;20198;-70
2021/10/23 07:05:16;;;;;;;1.17;1.10;;;;;;;-145.64;100.00;65708.53;5040765;28;20198;-70
2021/10/23 07:07:45;;;;;;;0.70;0.70;;;;;;;-145.64;100.00;65708.53;5042335;28;20225;-70
2021/10/23 07:10:13;;;;;;;1.57;1.30;;;;;;;-145.64;100.00;65708.53;5044513;28;20750;-70
2021/10/23 07:12:41;;;;;;;0.70;0.70;;;;;;;-145.64;100.00;65708.53;5045531;28;20201;-71
2021/10/23 07:15:10;;;;;;;0.60;0.60;;;;;;;-145.64;100.00;65708.53;5043306;28;20593;-69
2021/10/23 07:17:38;;;;;;;2.40;0.57;;;;;;;-145.64;100.00;65708.53;5042854;28;20201;-70
2021/10/23 07:20:10;;;;;;;0.60;0.60;;;;;;;-145.64;100.00;65708.53;5043433;28;20225;-70
2021/10/23 07:22:40;;;;;;;0.60;0.60;;;;;;;-145.64;100.00;65708.53;5041549;28;20199;-71
2021/10/23 07:25:09;;;;;;;0.70;0.70;;;;;;;-145.64;100.00;65708.53;5038933;28;20202;-71
2021/10/23 07:27:37;;;;;;;1.50;0.40;;;;;;;-145.64;100.00;65708.53;5041977;28;20202;-70
2021/10/23 07:30:09;;;;;;;0.50;0.50;;;;;;;-145.64;100.00;65708.53;5046508;28;20206;-70
2021/10/23 07:32:37;;;;;;;0.60;0.60;;;;;;;-145.64;100.00;65708.53;5037362;28;20235;-68
2021/10/23 07:35:06;;;;;;;0.40;0.40;;;;;;;-145.64;100.00;65708.53;5042841;28;20544;-68
2021/10/23 07:37:35;;;;;;;0.60;0.60;;;;;;;-145.64;100.00;65708.53;5041339;28;20209;-68
2021/10/23 07:40:07;;;;;;;0.50;0.50;;;;;;;-145.64;100.00;65708.53;5043370;28;20232;-68
2021/10/23 07:42:37;;;;;;;0.43;0.43;;;;;;;-145.64;100.00;65708.53;5040453;28;20548;-67
2021/10/23 07:45:06;;;;;;;0.70;0.70;;;;;;;-145.64;100.00;65708.53;5042879;28;20559;-67
2021/10/23 07:47:34;;;;;;;0.60;0.60;;;;;;;-145.64;100.00;65708.53;5040102;28;20220;-68
2021/10/23 07:50:03;;;;;;;0.60;0.60;;;;;;;-145.64;100.00;65708.53;5042129;28;20273;-67
2021/10/23 07:52:31;;;;;;;0.60;0.60;;;;;;;-145.64;100.00;65708.53;5041929;28;20212;-68
2021/10/23 07:55:02;;;;;;;0.53;0.50;;;;;;;-145.64;100.00;65708.53;5039240;28;20595;-68
2021/10/23 07:57:32;;;;;;;0.57;0.57;;;;;;;-145.64;100.00;65708.53;5040463;28;20193;-68
2021/10/23 08:00:00;;;;;;;1.70;0.67;;;;;;;-145.64;100.00;65708.53;5040433;28;20199;-68
2021/10/23 08:02:28;;;;;;;0.40;0.40;;;;;;;-145.64;100.00;65708.53;5038065;28;20204;-68
2021/10/23 08:04:56;;;;;;;1.10;0.80;;;;;;;-145.64;100.00;65708.53;5037630;28;20888;-68
2021/10/23 08:07:24;;;;;;;0.60;0.60;;;;;;;-145.64;100.00;65708.53;5039556;28;20744;-68
2021/10/23 08:09:53;;;;;;;1.57;0.53;;;;;;;-145.64;100.00;65708.53;5038816;28;20202;-68
2021/10/23 08:12:21;;;;;;;0.50;0.50;;;;;;;-145.64;100.00;65708.53;5039507;28;20858;-68
2021/10/23 08:14:51;;;;;;;0.70;0.70;;;;;;;-145.64;100.00;65708.53;5040270;28;20746;-68
2021/10/23 08:17:19;;;;;;;0.60;0.60;;;;;;;-145.64;100.00;65708.53;5039825;28;20201;-68
2021/10/23 08:19:47;;;;;;;0.70;0.70;;;;;;;-145.64;100.00;65708.53;5038385;28;20201;-68
2021/10/23 08:22:15;;;;;;;0.60;0.60;;;;;;;-145.64;100.00;65708.53;5041022;28;20728;-68
2021/10/23 08:24:44;;;;;;;0.50;0.50;;;;;;;-145.64;100.00;65708.53;5040061;28;20691;-68
2021/10/23 08:27:13;;;;;;;0.60;0.60;;;;;;;-145.64;100.00;65708.53;5035430;28;20209;-68
2021/10/23 08:29:42;;;;;;;1.03;0.60;;;;;;;-145.64;100.00;65708.53;5037311;28;20251;-68
2021/10/23 08:32:11;;;;;;;0.60;0.60;;;;;;;-145.64;100.00;65708.53;5031729;28;20199;-68
2021/10/23 08:34:40;;;;;;;0.50;0.50;;;;;;;-145.64;100.00;65708.53;5034843;28;20202;-68
2021/10/23 08:37:08;;;;;;;0.50;0.50;;;;;;;-145.64;100.00;65708.53;5038968;28;20727;-68
2021/10/23 08:39:37;;;;;;;0.60;0.60;;;;;;;-145.64;100.00;65708.53;5038331;28;20206;-68
2021/10/23 08:42:06;;;;;;;0.53;0.53;;;;;;;-145.64;100.00;65708.53;5037708;28;20205;-68
2021/10/23 08:44:37;;;;;;;0.40;0.40;;;;;;;-145.64;100.00;65708.53;5036783;28;20190;-68
2021/10/23 08:47:06;;;;;;;0.50;0.50;;;;;;;-145.64;100.00;65708.53;5043563;28;20582;-68
2021/10/23 08:49:36;;;;;;;0.70;0.70;;;;;;;-145.64;100.00;65708.53;5044247;28;20260;-68
2021/10/23 08:52:05;;;;;;;0.50;0.50;;;;;;;-145.64;100.00;65708.53;5046610;28;20202;-69
2021/10/23 08:54:34;;;;;;;0.50;0.50;;;;;;;-145.64;100.00;65708.53;5041956;28;20195;-69
2021/10/23 08:57:03;;;;;;;0.80;0.80;;;;;;;-145.64;100.00;65708.53;5045868;28;20187;-68
2021/10/23 08:59:31;;;;;;;0.60;0.60;;;;;;;-145.64;100.00;65708.53;5041176;28;20227;-69
2021/10/23 09:02:00;;;;;;;0.50;0.50;;;;;;;-145.64;100.00;65708.53;5046079;28;20563;-68
2021/10/23 09:04:30;;;;;;;1.13;0.60;;;;;;;-145.64;100.00;65708.53;5048068;28;20204;-68
2021/10/23 09:07:08;;;;;;;0.50;0.50;;;;;;;-145.64;100.00;65708.53;5046489;28;20539;-68
2021/10/23 09:09:47;;;;;;;2.30;0.40;;;;;;;-145.64;100.00;65708.53;5045301;28;20212;-68
2021/10/23 09:12:20;;;;;;;1.17;0.60;;;;;;;-145.64;100.00;65708.53;5041727;28;20198;-68
2021/10/23 09:14:49;;;;;;;0.40;0.40;;;;;;;-145.64;100.00;65708.53;5040302;28;20277;-67
2021/10/23 09:17:18;;;;;;;0.40;0.40;;;;;;;-145.64;100.00;65708.53;5043461;28;20294;-68
2021/10/23 09:19:48;;;;;;;2.10;0.40;;;;;;;-145.64;100.00;65708.53;5046579;28;20235;-68
2021/10/23 09:22:30;;;;;;;0.77;0.60;;;;;;;-145.64;100.00;65708.53;5044340;28;20202;-67
2021/10/23 09:25:16;;;;;;;0.50;0.50;;;;;;;-145.64;100.00;65708.53;5041161;28;20186;-67
2021/10/23 09:27:56;;;;;;;0.63;0.63;;;;;;;-145.64;100.00;65708.53;5042634;28;20348;-68
2021/10/23 09:30:30;;;;;;;0.70;0.70;;;;;;;-145.64;100.00;65708.53;5043753;28;20553;-68
2021/10/23 09:33:03;;;;;;;4.50;0.70;;;;;;;-145.64;100.00;65708.53;5074994;28;20205;-64
2021/10/23 09:35:32;;;;;;;0.60;0.60;;;;;;;-145.64;100.00;65708.53;5054632;28;20217;-66
2021/10/23 09:38:02;;;;;;;0.47;0.47;;;;;;;-145.64;100.00;65708.53;5037427;28;20197;-66
2021/10/23 09:40:31;;;;;;;0.60;0.50;;;;;;;-145.64;100.00;65708.53;5033800;28;20293;-66
2021/10/23 09:43:11;;;;;;;0.33;0.33;;;;;;;-145.64;100.00;65708.53;5038435;28;20193;-67
2021/10/23 09:46:01;;;;;;;0.60;0.60;;;;;;;-145.64;100.00;65708.53;5037332;28;20299;-67
2021/10/23 09:48:30;;;;;;;0.50;0.50;;;;;;;-145.64;100.00;65708.53;5043977;28;20197;-66
2021/10/23 09:51:19;;;;;;;0.50;0.50;;;;;;;-145.64;100.00;65708.53;5047661;28;20213;-66
2021/10/23 09:53:50;;;;;;;0.67;0.67;;;;;;;-145.64;100.00;65708.53;5034954;28;20204;-66
2021/10/23 09:56:19;;;;;;;0.53;0.53;;;;;;;-145.64;100.00;65708.53;5042726;28;20223;-66
2021/10/23 09:58:56;;;;;;;0.50;0.50;;;;;;;-145.64;100.00;65708.53;5042860;28;20280;-66
2021/10/23 10:01:26;;;;;;;0.57;0.57;;;;;;;-145.64;100.00;65708.53;5038729;28;20666;-65
2021/10/23 10:03:57;;;;;;;0.70;0.70;;;;;;;-145.64;100.00;65708.53;5043202;28;20217;-66
2021/10/23 10:06:26;;;;;;;2.10;0.50;;;;;;;-145.64;100.00;65708.53;5047465;28;20204;-68
2021/10/23 10:08:57;;;;;;;0.50;0.50;;;;;;;-145.64;100.00;65708.53;5049352;28;20950;-68
2021/10/23 10:11:25;;;;;;;1.03;0.70;;;;;;;-145.64;100.00;65708.53;5048127;28;20193;-68
2021/10/23 10:13:53;;;;;;;0.60;0.60;;;;;;;-145.64;100.00;65708.53;5046539;28;20204;-68
2021/10/23 10:16:24;;;;;;;0.60;0.60;;;;;;;-145.64;100.00;65708.53;5046920;28;20314;-69
2021/10/23 10:18:54;;;;;;;1.33;0.60;;;;;;;-145.64;100.00;65708.53;5039761;28;20202;-69
2021/10/23 10:21:23;;;;;;;0.57;0.57;;;;;;;-145.64;100.00;65708.53;5042101;28;20705;-69
2021/10/23 10:23:53;;;;;;;0.70;0.70;;;;;;;-145.64;100.00;65708.53;5038824;28;20199;-69
2021/10/23 10:26:31;;;;;;;0.63;0.60;;;;;;;-145.64;100.00;65708.53;5045395;28;20205;-69
2021/10/23 10:29:15;;;;;;;0.77;0.77;;;;;;;-145.64;100.00;65708.53;5047791;28;20737;-68
2021/10/23 10:31:51;;;;;;;0.60;0.60;;;;;;;-145.64;100.00;65708.53;5040328;28;20202;-68
2021/10/23 10:37:57;;;;;;;0.80;0.80;;;;;;;-145.64;100.00;65708.53;5042692;28;20191;-68
2021/10/23 10:43:17;;;;;;;29.67;26.43;;;;;;;-145.64;100.00;65708.53;5037785;28;20297;-69
2021/10/23 10:45:57;;;;;;;46.63;26.83;;;;;;;-145.64;100.00;65708.53;5046537;28;20276;-69
2021/10/23 10:48:41;;;;;;;2.73;2.23;;;;;;;-145.64;100.00;65708.53;5035245;28;20199;-68
2021/10/23 10:51:21;;;;;;;3.33;1.50;;;;;;;-145.64;100.00;65708.53;5038520;28;20604;-69
2021/10/23 10:54:08;;;;;;;1.23;0.90;;;;;;;-145.64;100.00;65708.53;5047105;28;20200;-70
2021/10/23 10:56:50;;;;;;;0.80;0.80;;;;;;;-145.64;100.00;65708.53;5043544;28;20711;-69
2021/10/23 10:59:55;;;;;;;0.73;0.73;;;;;;;-145.64;100.00;65708.53;5036512;28;20206;-69
2021/10/23 11:02:35;;;;;;;0.73;0.70;;;;;;;-145.64;100.00;65708.53;5043774;28;20305;-69
2021/10/23 11:05:17;;;;;;;0.60;0.50;;;;;;;-145.64;100.00;65708.53;5043446;28;20218;-70
2021/10/23 11:08:09;;;;;;;0.50;0.50;;;;;;;-145.64;100.00;65708.53;5035769;28;20189;-70
2021/10/23 11:10:57;;;;;;;1.03;0.60;;;;;;;-145.64;100.00;65708.53;5033289;28;20200;-69
2021/10/23 11:13:29;;;;;;;4.80;0.77;;;;;;;-145.64;100.00;65708.53;5045698;28;20235;-69
2021/10/23 11:15:59;;;;;;;0.60;0.60;;;;;;;-145.64;100.00;65708.53;5045867;28;20250;-67
2021/10/23 11:18:28;;;;;;;0.60;0.60;;;;;;;-145.64;100.00;65708.53;5048561;28;20349;-67
2021/10/23 11:20:57;;;;;;;0.70;0.50;;;;;;;-145.64;100.00;65708.53;5049458;28;20275;-67
2021/10/23 11:23:25;;;;;;;0.70;0.70;;;;;;;-145.64;100.00;65708.53;5047972;28;20206;-69
2021/10/23 11:25:53;;;;;;;0.70;0.70;;;;;;;-145.64;100.00;65708.53;5049378;28;20191;-69
2021/10/23 11:28:21;;;;;;;0.90;0.60;;;;;;;-145.64;100.00;65708.53;5049543;28;20238;-70